Time;durP1;ratioP1;P1;durP2;ratioP2;P2;SDS_P1;SDS_P2;PMS_P1;PMS_P2;Temp;Humidity;BMP_temperature;BMP_pressure;BME280_temperature;BME280_humidity;BME280_pressure;Samples;Min_cycle;Max_cycle;Signal;HPM_P1;HPM_P2
2023/11/19 00:02:04;;;;;;;;;7.50;6.00;;;;;9.17;41.69;100872.88;146621;585;46010;-69
2023/11/19 00:05:19;;;;;;;;;9.25;9.00;;;;;7.51;41.88;100590.75;146619;569;46012;-69
2023/11/19 00:08:26;;;;;;;;;7.25;6.75;;;;;9.17;42.51;100880.63;146619;569;47010;-69
2023/11/19 00:11:24;;;;;;;;;15.25;12.00;;;;;9.17;42.61;100880.63;146618;599;46016;-68
2023/11/19 00:14:19;;;;;;;;;9.25;6.50;;;;;9.19;42.76;100896.22;146621;581;46021;-68
2023/11/19 00:17:16;;;;;;;;;7.00;5.50;;;;;9.21;43.20;100894.63;146617;630;46016;-68
2023/11/19 00:20:29;;;;;;;;;8.50;8.50;;;;;9.22;43.51;100906.75;146619;590;47020;-68
2023/11/19 00:23:29;;;;;;;;;8.50;7.00;;;;;9.21;43.73;100924.00;146617;582;47012;-68
2023/11/19 00:26:36;;;;;;;;;6.25;5.75;;;;;9.20;44.13;100942.91;146623;577;46010;-68
2023/11/19 00:29:38;;;;;;;;;5.75;5.50;;;;;9.17;42.93;100944.44;146620;567;46015;-67
2023/11/19 00:32:36;;;;;;;;;8.50;6.75;;;;;9.19;43.89;100938.56;146622;569;46020;-67
2023/11/19 00:35:36;;;;;;;;;9.75;7.75;;;;;9.22;44.84;100941.31;146619;591;47012;-67
2023/11/19 00:38:40;;;;;;;;;5.50;4.50;;;;;9.24;44.09;100950.03;146623;620;46021;-68
2023/11/19 00:41:40;;;;;;;;;7.00;6.25;;;;;9.22;44.10;100954.25;146619;571;46014;-66
2023/11/19 00:44:41;;;;;;;;;4.00;3.00;;;;;9.22;43.82;100959.44;146621;611;46021;-67
2023/11/19 00:47:51;;;;;;;;;5.25;5.25;;;;;9.21;43.64;100947.28;146617;753;46016;-67
2023/11/19 00:50:46;;;;;;;;;4.75;2.75;;;;;9.20;43.47;100939.44;146614;617;47020;-66
2023/11/19 00:53:54;;;;;;;;;6.50;5.00;;;;;9.17;44.05;100939.25;146619;608;46014;-66
2023/11/19 00:56:52;;;;;;;;;5.50;4.50;;;;;9.13;43.83;100933.00;146615;611;46020;-66
2023/11/19 00:59:53;;;;;;;;;2.50;2.50;;;;;9.09;43.30;100925.84;146619;577;47013;-66
2023/11/19 01:02:50;;;;;;;;;4.00;3.75;;;;;9.09;43.96;100933.59;146622;633;46010;-67
2023/11/19 01:05:52;;;;;;;;;4.00;3.25;;;;;9.08;43.69;100941.28;146620;614;45034;-66
2023/11/19 01:09:08;;;;;;;;;4.25;4.00;;;;;9.08;44.26;100943.88;146621;636;46012;-66
2023/11/19 01:12:18;;;;;;;;;3.25;3.25;;;;;9.05;44.46;100957.50;146621;569;46016;-66
2023/11/19 01:15:37;;;;;;;;;6.25;6.25;;;;;7.47;45.17;100703.94;146621;569;46012;-66
2023/11/19 01:18:33;;;;;;;;;3.50;3.50;;;;;8.90;44.92;100966.91;146619;586;47012;-66
2023/11/19 01:21:50;;;;;;;;;4.25;3.75;;;;;7.27;45.04;100720.75;146619;617;46020;-67
2023/11/19 01:24:52;;;;;;;;;4.25;3.75;;;;;8.71;44.72;100958.00;146619;605;46014;-68
2023/11/19 01:28:02;;;;;;;;;3.00;3.00;;;;;8.74;45.59;100968.53;146621;664;46020;-66
2023/11/19 01:31:08;;;;;;;;;5.00;4.00;;;;;8.75;45.74;100948.75;146617;626;47012;-65
2023/11/19 01:34:03;;;;;;;;;3.25;2.75;;;;;8.75;45.49;100957.44;146621;631;47010;-66
2023/11/19 01:37:14;;;;;;;;;;;;;;;;;;;;;
2023/11/19 01:40:26;;;;;;;;;8.25;5.75;;;;;8.79;44.53;100937.81;146620;652;47030;-67
2023/11/19 01:43:42;;;;;;;;;3.00;3.00;;;;;8.80;44.49;100962.87;146618;688;46012;-67
2023/11/19 01:46:52;;;;;;;;;4.00;3.00;;;;;8.78;44.40;100961.88;146619;629;48010;-67
2023/11/19 01:49:53;;;;;;;;;2.00;2.00;;;;;8.77;44.34;100960.97;146615;618;47917;-67
2023/11/19 01:52:57;;;;;;;;;11.50;10.50;;;;;8.78;43.63;100965.38;146622;642;46010;-66
2023/11/19 01:56:09;;;;;;;;;9.25;7.00;;;;;8.82;42.86;100950.03;146618;569;47021;-66
2023/11/19 01:59:17;;;;;;;;;0.25;0.00;;;;;8.90;42.11;100938.47;146620;571;47010;-67
2023/11/19 02:02:21;;;;;;;;;2.00;1.00;;;;;8.99;41.18;100926.97;146619;605;46014;-69
2023/11/19 02:05:21;;;;;;;;;13.25;9.50;;;;;9.13;41.36;100920.06;146618;593;46021;-67
2023/11/19 02:08:27;;;;;;;;;8.00;5.75;;;;;9.23;40.56;100900.81;146615;592;47012;-67
2023/11/19 02:11:35;;;;;;;;;6.50;5.50;;;;;9.31;40.95;100914.19;146621;583;46010;-67
2023/11/19 02:15:00;;;;;;;;;1.75;1.75;;;;;7.85;41.81;100639.25;146616;644;47014;-66
2023/11/19 02:18:35;;;;;;;;;1.75;1.75;;;;;9.47;41.79;100925.56;146620;572;46010;-66
2023/11/19 02:21:30;;;;;;;;;1.00;1.00;;;;;9.52;40.55;100948.22;146619;581;47012;-66
2023/11/19 02:24:46;;;;;;;;;1.00;1.00;;;;;9.52;42.18;100950.81;146623;571;46010;-68
2023/11/19 02:28:01;;;;;;;;;1.00;1.00;;;;;9.59;42.42;100960.72;146621;596;46013;-70
2023/11/19 02:30:53;;;;;;;;;1.00;1.00;;;;;9.62;40.23;100951.41;146622;622;46010;-68
2023/11/19 02:33:49;;;;;;;;;0.75;0.00;;;;;9.65;40.76;100950.72;146615;653;46014;-68
2023/11/19 02:36:49;;;;;;;;;0.75;0.75;;;;;9.68;40.45;100944.00;146619;566;47012;-66
2023/11/19 02:39:53;;;;;;;;;1.25;0.50;;;;;9.71;41.17;100949.37;146617;569;47014;-66
2023/11/19 02:43:04;;;;;;;;;0.75;0.75;;;;;9.75;41.00;100957.31;146618;661;46021;-68
2023/11/19 02:46:00;;;;;;;;;2.00;1.25;;;;;9.78;40.28;100947.12;146618;574;46016;-66
2023/11/19 02:49:05;;;;;;;;;1.75;1.75;;;;;9.77;41.26;100943.66;146624;646;46010;-66
2023/11/19 02:52:01;;;;;;;;;3.00;1.00;;;;;9.71;40.53;100946.78;146616;607;48012;-66
2023/11/19 02:55:39;;;;;;;;;3.50;2.00;;;;;9.65;42.15;100941.25;146621;570;45020;-68
2023/11/19 02:58:44;;;;;;;;;1.25;1.25;;;;;9.62;41.39;100955.72;146613;616;46016;-67
2023/11/19 03:01:47;;;;;;;;;;;;;;;;;;;;;
2023/11/19 03:05:05;;;;;;;;;1.50;1.50;;;;;7.84;41.80;100658.97;146621;647;46015;-69
2023/11/19 03:08:02;;;;;;;;;0.75;0.75;;;;;9.53;41.13;100932.75;146621;630;46020;-67
2023/11/19 03:11:03;;;;;;;;;2.25;2.25;;;;;9.56;41.96;100952.75;146617;598;46016;-67
2023/11/19 03:14:15;;;;;;;;;0.50;0.50;;;;;9.59;41.13;100940.00;146619;645;46020;-67
2023/11/19 03:17:18;;;;;;;;;6.25;4.00;;;;;9.63;41.85;100953.22;146617;609;47012;-68
2023/11/19 03:20:33;;;;;;;;;3.50;2.50;;;;;8.26;42.31;100702.81;146623;608;46010;-67
2023/11/19 03:23:32;;;;;;;;;3.00;3.00;;;;;9.66;41.00;100957.69;146621;691;46016;-69
2023/11/19 03:26:37;;;;;;;;;5.25;5.00;;;;;9.69;41.23;100965.66;146621;574;46020;-69
2023/11/19 03:29:32;;;;;;;;;1.00;1.00;;;;;9.68;41.08;100961.25;146621;618;46016;-68
2023/11/19 03:32:51;;;;;;;;;1.50;0.75;;;;;9.64;41.46;100969.66;146619;630;47010;-68
2023/11/19 03:35:51;;;;;;;;;1.75;1.75;;;;;9.57;41.52;100983.03;146619;565;46016;-67
2023/11/19 03:38:50;;;;;;;;;3.25;3.00;;;;;9.49;41.39;100998.09;146620;563;46020;-68
2023/11/19 03:42:06;;;;;;;;;3.50;2.25;;;;;8.12;42.52;100774.28;146614;604;46017;-69
2023/11/19 03:45:08;;;;;;;;;4.75;3.25;;;;;9.36;42.42;100987.81;146624;591;46020;-67
2023/11/19 03:48:16;;;;;;;;;3.00;3.00;;;;;9.28;43.21;100994.22;146617;575;46016;-67
2023/11/19 03:51:28;;;;;;;;;;;;;;;;;;;;;
2023/11/19 03:54:40;;;;;;;;;2.75;2.25;;;;;9.00;43.44;101008.03;146619;632;47012;-67
2023/11/19 03:57:41;;;;;;;;;3.00;3.00;;;;;8.88;43.42;101002.09;146620;569;46011;-67
2023/11/19 04:00:35;;;;;;;;;3.00;2.50;;;;;8.79;43.93;101003.34;146618;604;46012;-69
2023/11/19 04:03:45;;;;;;;;;1.00;1.00;;;;;8.74;44.00;101009.03;146621;584;47010;-69
2023/11/19 04:06:48;;;;;;;;;3.75;3.75;;;;;8.68;43.69;101006.03;146618;644;46016;-68
2023/11/19 04:09:56;;;;;;;;;5.00;4.00;;;;;7.98;44.17;100875.84;146619;597;46010;-69
2023/11/19 04:13:10;;;;;;;;;1.75;1.75;;;;;6.91;44.59;100681.47;146619;576;47016;-70
2023/11/19 04:16:08;;;;;;;;;2.75;2.00;;;;;8.68;44.23;100998.28;146623;586;46010;-67
2023/11/19 04:19:07;;;;;;;;;2.50;1.50;;;;;8.71;44.06;101008.81;146617;609;46016;-67
2023/11/19 04:22:13;;;;;;;;;2.75;2.75;;;;;8.74;44.07;101015.06;146619;607;46020;-68
2023/11/19 04:25:38;;;;;;;;;;;;;;;;;;;;;
2023/11/19 04:28:52;;;;;;;;;2.50;1.75;;;;;8.90;44.11;101036.72;146619;630;47023;-69
2023/11/19 04:32:00;;;;;;;;;2.00;2.00;;;;;8.97;44.06;101037.22;146619;591;47033;-70
2023/11/19 04:35:11;;;;;;;;;1.50;1.25;;;;;9.03;43.83;101054.78;146616;574;46021;-67
2023/11/19 04:38:07;;;;;;;;;2.00;1.75;;;;;8.99;43.54;101060.59;146619;569;46016;-68
2023/11/19 04:41:14;;;;;;;;;4.75;3.75;;;;;8.96;43.47;101061.28;146620;573;46021;-69
2023/11/19 04:44:18;;;;;;;;;3.00;2.00;;;;;8.90;44.21;101060.91;146620;638;46014;-67
2023/11/19 04:47:16;;;;;;;;;4.75;3.25;;;;;8.83;44.09;101079.41;146619;578;46010;-67
2023/11/19 04:50:14;;;;;;;;;3.25;3.25;;;;;8.74;44.07;101077.13;146617;574;46016;-66
2023/11/19 04:53:17;;;;;;;;;4.00;4.00;;;;;8.68;44.81;101087.06;146617;593;47034;-66
2023/11/19 04:56:32;;;;;;;;;6.25;3.75;;;;;8.62;44.80;101094.44;146617;590;47013;-67
2023/11/19 04:59:36;;;;;;;;;5.25;4.00;;;;;8.54;44.68;101087.91;146619;684;47020;-67
2023/11/19 05:02:37;;;;;;;;;3.00;3.00;;;;;8.50;45.05;101107.47;146621;629;46034;-67
2023/11/19 05:05:49;;;;;;;;;2.50;2.25;;;;;8.48;45.08;101088.37;146615;569;46021;-68
2023/11/19 05:08:52;;;;;;;;;3.25;2.00;;;;;8.47;45.26;101096.00;146618;569;46920;-68
2023/11/19 05:12:09;;;;;;;;;5.25;4.50;;;;;7.10;45.56;100880.44;146622;581;46010;-67
2023/11/19 05:15:14;;;;;;;;;5.00;4.00;;;;;8.39;45.88;101120.47;146619;665;46016;-69
2023/11/19 05:18:35;;;;;;;;;5.75;5.25;;;;;6.77;45.44;100839.47;146619;565;46011;-66
2023/11/19 05:21:31;;;;;;;;;3.00;3.00;;;;;8.28;45.99;101112.84;146621;604;46016;-67
2023/11/19 05:24:34;;;;;;;;;5.75;5.75;;;;;8.23;45.98;101129.75;146620;573;47010;-68
2023/11/19 05:27:52;;;;;;;;;8.00;5.50;;;;;8.17;45.94;101119.00;146618;658;47016;-68
2023/11/19 05:30:48;;;;;;;;;5.00;5.00;;;;;8.15;46.24;101112.84;146621;614;46010;-69
2023/11/19 05:33:45;;;;;;;;;5.00;4.00;;;;;8.11;46.58;101103.09;146617;606;46017;-70
2023/11/19 05:37:02;;;;;;;;;4.00;4.00;;;;;8.08;47.09;101111.53;146623;580;46012;-70
2023/11/19 05:40:17;;;;;;;;;4.75;4.75;;;;;8.09;46.95;101120.19;146618;594;47012;-69
2023/11/19 05:43:11;;;;;;;;;5.75;5.50;;;;;8.08;47.77;101101.22;146619;665;46020;-70
2023/11/19 05:46:13;;;;;;;;;5.75;4.25;;;;;8.07;47.78;101108.88;146619;586;46918;-68
2023/11/19 05:49:20;;;;;;;;;7.50;7.00;;;;;8.06;48.25;101113.09;146622;600;46020;-68
2023/11/19 05:52:16;;;;;;;;;7.25;6.75;;;;;8.30;48.67;101110.38;146617;583;46016;-68
2023/11/19 05:55:32;;;;;;;;;6.00;5.50;;;;;9.25;46.18;101117.47;146620;595;46010;-68
2023/11/19 05:58:39;;;;;;;;;9.50;9.00;;;;;10.26;44.25;101119.22;146616;569;47016;-69
2023/11/19 06:01:31;;;;;;;;;7.00;7.00;;;;;11.13;42.49;101119.03;146621;566;46021;-69
2023/11/19 06:04:48;;;;;;;;;;;;;;;;;;;;;
2023/11/19 06:08:03;;;;;;;;;8.00;7.00;;;;;11.45;41.26;100901.75;146623;626;47008;-68
2023/11/19 06:11:17;;;;;;;;;6.75;5.25;;;;;13.68;40.85;101134.47;146619;648;47014;-69
2023/11/19 06:14:16;;;;;;;;;6.50;5.00;;;;;14.73;38.95;101131.19;146617;630;47020;-67
2023/11/19 06:17:17;;;;;;;;;5.25;5.25;;;;;15.74;37.61;101129.03;146615;575;47041;-68
2023/11/19 06:20:21;;;;;;;;;13.00;7.75;;;;;16.57;36.40;101131.91;146623;563;46012;-68
2023/11/19 06:23:15;;;;;;;;;6.25;5.25;;;;;17.17;33.33;101133.91;146618;611;47918;-68
2023/11/19 06:26:19;;;;;;;;;5.25;3.25;;;;;17.50;32.81;101144.50;146616;592;47010;-69
2023/11/19 06:29:19;;;;;;;;;4.25;4.25;;;;;17.85;33.85;101140.31;146618;603;46016;-68
2023/11/19 06:32:24;;;;;;;;;5.50;3.25;;;;;18.20;33.59;101159.66;146619;673;46010;-69
2023/11/19 06:35:19;;;;;;;;;2.75;2.75;;;;;18.06;31.24;101150.50;146618;623;46016;-68
2023/11/19 06:38:31;;;;;;;;;5.25;5.25;;;;;16.12;34.07;100915.00;146620;700;47020;-68
2023/11/19 06:41:31;;;;;;;;;5.75;4.50;;;;;16.67;32.49;101149.72;146621;705;46016;-72
2023/11/19 06:44:37;;;;;;;;;3.00;3.00;;;;;15.79;33.86;101147.50;146623;563;46010;-69
2023/11/19 06:47:38;;;;;;;;;6.75;4.00;;;;;14.91;34.90;101158.87;146619;599;46012;-70
2023/11/19 06:50:47;;;;;;;;;4.25;3.50;;;;;12.67;36.42;100909.38;146621;641;46047;-70
2023/11/19 06:54:16;;;;;;;;;10.25;8.00;;;;;13.35;37.39;101172.03;146617;591;46018;-69
2023/11/19 06:57:25;;;;;;;;;;;;;;;;;;;;;
2023/11/19 07:00:36;;;;;;;;;5.25;4.00;;;;;12.54;40.78;101180.16;146621;565;46012;-67
2023/11/19 07:03:41;;;;;;;;;8.75;6.75;;;;;12.38;41.25;101178.50;146619;572;47010;-68
2023/11/19 07:06:37;;;;;;;;;7.50;7.00;;;;;12.33;41.52;101179.97;146613;708;47012;-69
2023/11/19 07:09:38;;;;;;;;;8.00;8.00;;;;;12.25;41.39;101170.06;146619;583;46021;-67
2023/11/19 07:12:35;;;;;;;;;13.25;10.25;;;;;12.24;41.38;101185.56;146618;603;46016;-69
2023/11/19 07:15:34;;;;;;;;;8.00;7.00;;;;;12.27;42.50;101193.53;146617;656;46020;-67
2023/11/19 07:18:51;;;;;;;;;9.50;8.00;;;;;11.11;41.46;100941.56;146619;605;46027;-69
2023/11/19 07:21:59;;;;;;;;;10.75;6.75;;;;;12.79;42.92;101197.91;146621;564;46010;-69
2023/11/19 07:25:05;;;;;;;;;;;;;;;;;;;;;
2023/11/19 07:28:04;;;;;;;;;5.75;5.75;;;;;13.26;40.27;101215.88;146620;615;46021;-69
2023/11/19 07:31:00;;;;;;;;;9.50;7.25;;;;;13.30;40.20;101215.22;146618;581;46017;-67
2023/11/19 07:34:13;;;;;;;;;;;;;;;;;;;;;
2023/11/19 07:37:22;;;;;;;;;7.25;7.00;;;;;13.35;40.43;101203.28;146618;599;47012;-66
2023/11/19 07:40:27;;;;;;;;;6.00;5.00;;;;;13.37;40.59;101206.87;146623;602;45020;-69
2023/11/19 07:43:34;;;;;;;;;6.50;5.00;;;;;13.50;41.15;101217.88;146615;619;47013;-67
2023/11/19 07:46:32;;;;;;;;;10.50;7.75;;;;;13.69;39.19;101224.84;146621;574;46021;-69
2023/11/19 07:49:30;;;;;;;;;13.50;10.00;;;;;13.81;38.17;101221.09;146619;584;46016;-67
2023/11/19 07:52:26;;;;;;;;;7.00;6.75;;;;;13.81;37.65;101220.19;146620;622;47011;-69
2023/11/19 07:55:30;;;;;;;;;5.25;5.25;;;;;13.74;38.02;101224.25;146618;616;47016;-68
2023/11/19 07:58:35;;;;;;;;;6.75;6.50;;;;;13.76;39.09;101219.06;146619;569;47010;-68
2023/11/19 08:01:32;;;;;;;;;4.75;4.50;;;;;13.91;38.54;101232.81;146620;682;46016;-69
2023/11/19 08:04:54;;;;;;;;;3.25;3.00;;;;;12.71;39.96;100981.56;146622;655;46010;-68
2023/11/19 08:07:50;;;;;;;;;5.00;4.00;;;;;14.32;38.00;101231.16;146617;573;46035;-68
2023/11/19 08:10:55;;;;;;;;;6.50;5.00;;;;;14.44;38.93;101236.03;146618;571;47020;-69
2023/11/19 08:13:58;;;;;;;;;8.75;6.25;;;;;14.54;37.95;101235.62;146617;603;47029;-68
2023/11/19 08:16:56;;;;;;;;;4.50;4.50;;;;;14.56;36.05;101231.38;146623;661;46010;-70
2023/11/19 08:19:50;;;;;;;;;5.00;4.75;;;;;14.62;37.54;101222.94;146617;664;46016;-68
2023/11/19 08:22:56;;;;;;;;;4.00;4.00;;;;;14.72;38.16;101232.94;146619;564;46021;-69
2023/11/19 08:26:09;;;;;;;;;2.50;2.50;;;;;14.86;39.00;101225.66;146620;684;46016;-68
2023/11/19 08:29:18;;;;;;;;;4.25;4.25;;;;;14.95;37.48;101219.16;146623;679;46010;-71
2023/11/19 08:32:25;;;;;;;;;4.25;4.25;;;;;14.99;37.90;101210.59;146615;611;47016;-70
2023/11/19 08:35:20;;;;;;;;;5.25;4.25;;;;;15.08;37.41;101207.47;146623;660;45020;-70
2023/11/19 08:38:19;;;;;;;;;5.00;4.00;;;;;15.12;37.30;101201.53;146615;672;47012;-70
2023/11/19 08:41:22;;;;;;;;;4.00;3.00;;;;;15.17;37.46;101199.09;146624;683;46010;-70
2023/11/19 08:44:20;;;;;;;;;7.25;7.00;;;;;15.25;35.92;101202.91;146621;622;46035;-70
2023/11/19 08:47:29;;;;;;;;;;;;;;;;;;;;;
2023/11/19 08:50:31;;;;;;;;;4.50;3.50;;;;;15.27;36.54;101192.53;146616;577;46012;-69
2023/11/19 08:53:28;;;;;;;;;2.75;2.75;;;;;15.28;35.24;101178.63;146614;598;47021;-69
2023/11/19 08:56:32;;;;;;;;;5.75;5.75;;;;;15.26;36.22;101170.72;146617;683;46012;-71
2023/11/19 08:59:37;;;;;;;;;7.00;6.50;;;;;15.10;35.30;101174.44;146623;604;46012;-70
2023/11/19 09:02:46;;;;;;;;;5.75;5.00;;;;;15.01;36.61;101172.37;146616;597;48012;-71
2023/11/19 09:05:52;;;;;;;;;7.25;5.00;;;;;15.00;34.95;101177.53;146626;564;46010;-69
2023/11/19 09:08:44;;;;;;;;;7.00;6.50;;;;;15.03;35.14;101172.44;146619;573;46012;-70
2023/11/19 09:11:45;;;;;;;;;8.00;8.00;;;;;15.14;36.24;101170.25;146621;667;46035;-69
2023/11/19 09:14:51;;;;;;;;;7.75;6.00;;;;;15.24;33.54;101172.41;146614;709;46016;-70
2023/11/19 09:17:43;;;;;;;;;7.50;5.75;;;;;15.32;33.87;101170.06;146614;640;46020;-70
2023/11/19 09:20:39;;;;;;;;;9.75;8.00;;;;;15.29;33.18;101168.22;146620;585;46014;-70
2023/11/19 09:23:41;;;;;;;;;5.50;5.00;;;;;15.39;34.30;101154.72;146620;605;46020;-69
2023/11/19 09:26:40;;;;;;;;;8.00;7.00;;;;;15.46;33.87;101156.72;146618;569;45916;-71
2023/11/19 09:29:49;;;;;;;;;5.25;5.00;;;;;15.57;32.59;101167.56;146621;579;46021;-71
2023/11/19 09:32:51;;;;;;;;;6.25;5.00;;;;;15.73;35.03;101171.69;146615;684;47014;-69
2023/11/19 09:35:56;;;;;;;;;5.50;4.00;;;;;15.84;33.30;101164.25;146615;609;46021;-71
2023/11/19 09:38:55;;;;;;;;;3.67;3.00;;;;;15.88;32.86;101168.75;146613;579;47916;-71
2023/11/19 09:41:57;;;;;;;;;6.00;4.00;;;;;15.86;33.22;101157.38;146622;678;46010;-72
2023/11/19 09:45:18;;;;;;;;;5.00;4.00;;;;;15.89;34.50;101152.25;146614;625;47032;-71
2023/11/19 09:48:25;;;;;;;;;6.00;5.00;;;;;15.90;33.62;101154.03;146619;599;47010;-68
2023/11/19 09:51:26;;;;;;;;;5.00;3.33;;;;;15.97;33.94;101145.56;146616;672;47042;-71
2023/11/19 09:54:56;;;;;;;;;4.00;4.00;;;;;16.10;34.03;101146.88;146620;609;47010;-70
2023/11/19 09:57:55;;;;;;;;;5.00;4.00;;;;;16.04;32.32;101152.78;146618;622;47015;-71
2023/11/19 10:00:51;;;;;;;;;5.75;5.75;;;;;15.94;33.12;101161.12;146623;606;46020;-69
2023/11/19 10:03:57;;;;;;;;;4.25;4.25;;;;;15.90;32.22;101162.75;146617;631;47012;-70
2023/11/19 10:07:11;;;;;;;;;3.00;3.00;;;;;16.02;35.22;101175.38;146625;628;46012;-70
2023/11/19 10:10:18;;;;;;;;;2.00;2.00;;;;;16.15;35.05;101148.81;146619;698;46014;-71
2023/11/19 10:13:27;;;;;;;;;;;;;;;;;;;;;
2023/11/19 10:16:44;;;;;;;;;4.00;4.00;;;;;16.33;32.54;101150.31;146619;566;46018;-69
2023/11/19 10:19:41;;;;;;;;;3.25;2.00;;;;;16.43;32.75;101136.69;146623;614;46020;-71
2023/11/19 10:22:50;;;;;;;;;4.00;2.75;;;;;16.44;33.71;101129.72;146620;705;46017;-70
2023/11/19 10:26:00;;;;;;;;;5.25;4.00;;;;;16.47;33.99;101121.97;146621;572;46010;-70
2023/11/19 10:29:15;;;;;;;;;;;;;;;;;;;;;
2023/11/19 10:32:21;;;;;;;;;;;;;;;;;;;;;
2023/11/19 10:35:36;;;;;;;;;5.25;5.25;;;;;16.65;31.82;101113.84;146620;565;47016;-70
2023/11/19 10:38:54;;;;;;;;;5.25;5.00;;;;;16.64;32.83;101118.22;146622;622;46010;-70
2023/11/19 10:41:52;;;;;;;;;4.00;3.00;;;;;16.62;33.70;101118.16;146615;644;46014;-70
2023/11/19 10:44:55;;;;;;;;;7.75;4.00;;;;;16.68;34.03;101117.47;146620;631;46021;-69
2023/11/19 10:47:54;;;;;;;;;5.00;4.00;;;;;16.82;33.86;101131.03;146621;578;46012;-71
2023/11/19 10:51:06;;;;;;;;;6.67;5.33;;;;;16.99;34.57;101127.22;146623;592;46010;-69
2023/11/19 10:54:17;;;;;;;;;4.00;4.00;;;;;17.04;33.41;101124.72;146619;561;47013;-70
2023/11/19 10:57:26;;;;;;;;;9.00;7.75;;;;;16.22;35.83;100969.37;146620;675;47010;-70
2023/11/19 11:00:31;;;;;;;;;4.00;4.00;;;;;17.22;33.44;101119.19;146618;637;46920;-69
2023/11/19 11:03:30;;;;;;;;;5.00;5.00;;;;;17.33;33.61;101124.75;146622;606;47010;-70
2023/11/19 11:06:28;;;;;;;;;8.25;8.25;;;;;17.30;33.33;101120.31;146619;662;46017;-69
2023/11/19 11:09:51;;;;;;;;;4.67;3.67;;;;;17.25;32.15;101112.28;146623;625;46010;-71
2023/11/19 11:13:10;;;;;;;;;4.67;3.67;;;;;17.13;32.13;101108.41;146613;591;47016;-70
2023/11/19 11:16:19;;;;;;;;;7.25;7.25;;;;;17.07;33.46;101104.78;146624;628;46012;-70
2023/11/19 11:19:31;;;;;;;;;6.75;6.00;;;;;17.14;34.01;101103.25;146619;671;46016;-70
2023/11/19 11:22:30;;;;;;;;;17.75;16.75;;;;;17.24;33.82;101102.66;146621;574;47010;-70
2023/11/19 11:26:07;;;;;;;;;4.50;4.50;;;;;17.31;34.33;101093.25;146620;613;45016;-70
2023/11/19 11:29:44;;;;;;;;;4.00;4.00;;;;;15.98;35.99;100859.66;146623;575;46020;-71
2023/11/19 11:33:13;;;;;;;;;4.25;4.25;;;;;17.52;34.35;101086.00;146617;605;47014;-70
2023/11/19 11:36:34;;;;;;;;;2.00;2.00;;;;;17.50;33.00;101087.69;146625;680;46020;-71
2023/11/19 11:39:41;;;;;;;;;12.75;11.00;;;;;16.17;33.96;100868.97;146621;566;46012;-70
2023/11/19 11:42:55;;;;;;;;;6.00;6.00;;;;;17.47;32.87;101095.47;146617;573;46020;-71
2023/11/19 11:45:52;;;;;;;;;8.50;6.75;;;;;17.45;33.60;101094.56;146619;586;46012;-71
2023/11/19 11:48:56;;;;;;;;;10.00;8.00;;;;;17.55;35.25;101093.97;146622;598;46010;-70
2023/11/19 11:52:15;;;;;;;;;14.00;12.75;;;;;16.48;35.67;100878.63;146615;621;46017;-70
2023/11/19 11:55:21;;;;;;;;;10.50;9.00;;;;;17.78;33.64;101078.91;146621;674;46020;-71
2023/11/19 11:58:20;;;;;;;;;13.00;10.25;;;;;17.94;33.57;101080.25;146615;580;47012;-69
2023/11/19 12:01:28;;;;;;;;;10.50;9.75;;;;;18.11;34.78;101072.81;146621;686;46010;-69
2023/11/19 12:04:20;;;;;;;;;10.50;10.00;;;;;18.24;31.38;101074.88;146622;670;45036;-70
2023/11/19 12:07:28;;;;;;;;;12.50;10.75;;;;;18.34;33.08;101073.38;146622;628;46021;-69
2023/11/19 12:10:32;;;;;;;;;17.50;11.25;;;;;18.44;33.54;101072.78;146618;600;47012;-69
2023/11/19 12:14:02;;;;;;;;;;;;;;;;;;;;;
2023/11/19 12:17:49;;;;;;;;;18.00;17.50;;;;;18.75;34.73;101070.87;146619;611;46012;-70
2023/11/19 12:21:01;;;;;;;;;2.33;2.33;;;;;18.87;33.21;101073.81;146619;590;47012;-71
2023/11/19 12:24:07;;;;;;;;;4.50;4.25;;;;;18.94;32.21;101072.22;146629;566;48923;-70
2023/11/19 12:27:12;;;;;;;;;11.50;11.50;;;;;19.03;34.02;101080.28;146634;614;46010;-70
2023/11/19 12:30:36;;;;;;;;;8.00;6.00;;;;;19.21;32.59;101079.81;146628;576;46014;-70
2023/11/19 12:33:53;;;;;;;;;7.00;7.00;;;;;19.34;31.38;101080.97;146636;595;45020;-69
2023/11/19 12:37:00;;;;;;;;;3.33;2.67;;;;;19.36;31.07;101072.25;146634;644;45917;-71
2023/11/19 12:39:52;;;;;;;;;6.00;6.00;;;;;19.42;31.75;101074.13;146635;596;46010;-71
2023/11/19 12:42:46;;;;;;;;;5.00;4.00;;;;;18.96;31.24;100975.03;146635;569;45016;-71
2023/11/19 12:46:00;;;;;;;;;7.75;7.00;;;;;18.45;32.77;100864.50;146636;686;45021;-71
2023/11/19 12:49:02;;;;;;;;;11.25;10.00;;;;;19.86;32.81;101083.81;146633;575;46012;-71
2023/11/19 12:52:19;;;;;;;;;13.00;11.25;;;;;19.91;31.25;101083.03;146635;601;45011;-70
2023/11/19 12:55:51;;;;;;;;;6.67;5.00;;;;;19.94;33.93;101075.19;146632;662;45016;-71
2023/11/19 12:58:46;;;;;;;;;11.00;7.67;;;;;19.99;30.78;101070.00;146631;610;47013;-71
2023/11/19 13:01:50;;;;;;;;;8.00;8.00;;;;;20.12;30.73;101063.22;146633;655;45016;-70
2023/11/19 13:04:43;;;;;;;;;5.33;5.00;;;;;20.29;30.27;101062.66;146636;590;45916;-71
2023/11/19 13:07:40;;;;;;;;;5.00;4.75;;;;;20.33;29.34;101075.88;146633;613;45013;-71
2023/11/19 13:11:07;;;;;;;;;8.00;7.00;;;;;20.27;33.28;101071.37;146635;597;46010;-72
2023/11/19 13:14:22;;;;;;;;;10.25;8.00;;;;;20.27;31.30;101074.00;146629;570;46916;-72
2023/11/19 13:17:27;;;;;;;;;5.33;5.33;;;;;20.17;29.04;101074.72;146634;660;46010;-72
2023/11/19 13:20:35;;;;;;;;;;;;;;;;;;;;;
2023/11/19 13:23:33;;;;;;;;;9.50;8.50;;;;;20.00;31.45;101062.16;146623;663;46021;-72
2023/11/19 13:26:28;;;;;;;;;8.00;8.00;;;;;20.11;31.30;101070.22;146616;656;46016;-71
2023/11/19 13:29:35;;;;;;;;;8.00;8.00;;;;;20.15;30.89;101064.16;146618;715;46027;-71
2023/11/19 13:32:35;;;;;;;;;9.75;9.00;;;;;20.25;31.63;101046.78;146620;586;46014;-71
2023/11/19 13:35:35;;;;;;;;;12.75;12.75;;;;;20.26;30.75;101043.28;146621;564;46021;-70
2023/11/19 13:38:32;;;;;;;;;8.50;8.50;;;;;20.30;30.79;101047.72;146617;572;46016;-71
2023/11/19 13:41:25;;;;;;;;;4.75;4.25;;;;;20.23;29.36;101040.59;146624;621;46010;-72
2023/11/19 13:44:34;;;;;;;;;18.50;16.00;;;;;20.11;31.33;101041.28;146617;606;46017;-72
2023/11/19 13:47:45;;;;;;;;;17.25;15.75;;;;;20.11;30.86;101040.37;146621;563;46010;-73
2023/11/19 13:50:39;;;;;;;;;14.33;9.00;;;;;20.00;29.73;101029.66;146620;621;46015;-71
2023/11/19 13:53:32;;;;;;;;;12.00;11.00;;;;;19.81;28.92;101024.09;146619;572;47010;-70
2023/11/19 13:56:32;;;;;;;;;11.25;9.00;;;;;19.66;30.21;101029.06;146616;606;47031;-70
2023/11/19 13:59:32;;;;;;;;;7.75;7.75;;;;;19.43;29.31;101030.31;146622;591;46031;-71
2023/11/19 14:02:29;;;;;;;;;17.00;13.00;;;;;19.28;29.70;101034.41;146617;569;47012;-70
2023/11/19 14:05:25;;;;;;;;;9.25;8.75;;;;;19.00;29.57;101037.28;146619;627;47020;-71
2023/11/19 14:08:36;;;;;;;;;13.00;11.75;;;;;18.65;30.59;101035.62;146621;633;47012;-71
2023/11/19 14:11:29;;;;;;;;;15.00;14.50;;;;;18.30;30.66;101047.03;146621;605;47010;-70
2023/11/19 14:14:46;;;;;;;;;;;;;;;;;;;;;
2023/11/19 14:17:46;;;;;;;;;7.00;6.33;;;;;17.21;30.02;101070.25;146624;573;46010;-71
2023/11/19 14:20:41;;;;;;;;;10.50;9.25;;;;;16.81;31.21;101069.91;146616;647;46016;-71
2023/11/19 14:23:44;;;;;;;;;10.00;8.75;;;;;16.43;31.39;101073.87;146619;598;47020;-71
2023/11/19 14:26:46;;;;;;;;;10.67;8.67;;;;;16.17;32.33;101070.41;146621;638;46016;-71
2023/11/19 14:29:52;;;;;;;;;18.00;16.25;;;;;15.95;33.41;101084.47;146619;631;47021;-71
2023/11/19 14:32:50;;;;;;;;;19.25;17.00;;;;;15.78;33.79;101076.00;146615;574;47024;-71
2023/11/19 14:35:58;;;;;;;;;19.75;18.25;;;;;15.67;34.50;101069.53;146619;676;46020;-71
2023/11/19 14:38:58;;;;;;;;;21.75;21.50;;;;;15.60;35.44;101057.91;146616;610;47916;-71
2023/11/19 14:42:08;;;;;;;;;19.75;19.25;;;;;14.08;35.36;100816.37;146619;575;46010;-71
2023/11/19 14:45:32;;;;;;;;;16.00;13.50;;;;;14.01;36.36;100823.06;146615;691;47012;-71
2023/11/19 14:48:30;;;;;;;;;17.75;15.25;;;;;15.28;34.85;101063.69;146619;566;47010;-71
2023/11/19 14:51:26;;;;;;;;;19.25;15.75;;;;;15.16;34.79;101067.59;146618;564;46017;-71